sensor_id;sensor_type;location;lat;lon;timestamp;temperature;humidity
2729;DHT22;1372;47.956;7.830;2023-04-08T00:00:13;5.80;99.90
2729;DHT22;1372;47.956;7.830;2023-04-08T00:02:42;5.60;99.90
2729;DHT22;1372;47.956;7.830;2023-04-08T00:05:11;5.60;99.90
2729;DHT22;1372;47.956;7.830;2023-04-08T00:07:40;5.50;99.90
2729;DHT22;1372;47.956;7.830;2023-04-08T00:10:09;5.50;99.90
2729;DHT22;1372;47.956;7.830;2023-04-08T00:12:38;5.60;99.90
2729;DHT22;1372;47.956;7.830;2023-04-08T00:15:07;5.70;99.90
2729;DHT22;1372;47.956;7.830;2023-04-08T00:17:40;5.70;99.90
2729;DHT22;1372;47.956;7.830;2023-04-08T00:20:10;5.60;99.90
2729;DHT22;1372;47.956;7.830;2023-04-08T00:22:38;5.60;99.90
2729;DHT22;1372;47.956;7.830;2023-04-08T00:25:08;5.60;99.90
2729;DHT22;1372;47.956;7.830;2023-04-08T00:27:37;5.50;99.90
2729;DHT22;1372;47.956;7.830;2023-04-08T00:30:06;5.60;99.90
2729;DHT22;1372;47.956;7.830;2023-04-08T00:32:36;5.70;99.90
2729;DHT22;1372;47.956;7.830;2023-04-08T00:35:07;5.90;99.90
2729;DHT22;1372;47.956;7.830;2023-04-08T00:37:36;6.00;99.90
2729;DHT22;1372;47.956;7.830;2023-04-08T00:40:06;6.00;99.90
2729;DHT22;1372;47.956;7.830;2023-04-08T00:42:36;6.00;99.90
2729;DHT22;1372;47.956;7.830;2023-04-08T00:45:06;6.10;99.90
2729;DHT22;1372;47.956;7.830;2023-04-08T00:47:38;6.00;99.90
2729;DHT22;1372;47.956;7.830;2023-04-08T00:50:11;6.00;99.90
2729;DHT22;1372;47.956;7.830;2023-04-08T00:52:40;6.00;99.90
2729;DHT22;1372;47.956;7.830;2023-04-08T00:55:11;6.00;99.90
2729;DHT22;1372;47.956;7.830;2023-04-08T00:57:40;6.10;99.90
2729;DHT22;1372;47.956;7.830;2023-04-08T01:00:11;6.10;99.90
2729;DHT22;1372;47.956;7.830;2023-04-08T01:02:46;6.10;99.90
2729;DHT22;1372;47.956;7.830;2023-04-08T01:05:25;6.10;99.90
2729;DHT22;1372;47.956;7.830;2023-04-08T01:07:59;6.10;99.90
2729;DHT22;1372;47.956;7.830;2023-04-08T01:10:33;6.10;99.90
2729;DHT22;1372;47.956;7.830;2023-04-08T01:13:05;6.10;99.90
2729;DHT22;1372;47.956;7.830;2023-04-08T01:15:37;6.00;99.90
2729;DHT22;1372;47.956;7.830;2023-04-08T01:18:11;6.00;99.90
2729;DHT22;1372;47.956;7.830;2023-04-08T01:20:43;6.10;99.90
2729;DHT22;1372;47.956;7.830;2023-04-08T01:23:22;5.90;99.90
2729;DHT22;1372;47.956;7.830;2023-04-08T01:26:05;6.00;99.90
2729;DHT22;1372;47.956;7.830;2023-04-08T01:28:34;6.00;99.90
2729;DHT22;1372;47.956;7.830;2023-04-08T01:31:04;6.10;99.90
2729;DHT22;1372;47.956;7.830;2023-04-08T01:33:34;6.00;99.90
2729;DHT22;1372;47.956;7.830;2023-04-08T01:36:05;6.00;99.90
2729;DHT22;1372;47.956;7.830;2023-04-08T01:38:35;5.90;99.90
2729;DHT22;1372;47.956;7.830;2023-04-08T01:41:07;5.90;99.90
2729;DHT22;1372;47.956;7.830;2023-04-08T01:43:38;5.90;99.90
2729;DHT22;1372;47.956;7.830;2023-04-08T01:46:09;5.90;99.90
2729;DHT22;1372;47.956;7.830;2023-04-08T01:48:40;6.00;99.90
2729;DHT22;1372;47.956;7.830;2023-04-08T01:51:09;6.00;99.90
2729;DHT22;1372;47.956;7.830;2023-04-08T01:53:39;5.90;99.90
2729;DHT22;1372;47.956;7.830;2023-04-08T01:56:11;5.90;99.90
2729;DHT22;1372;47.956;7.830;2023-04-08T01:58:45;5.80;99.90
2729;DHT22;1372;47.956;7.830;2023-04-08T02:01:17;5.70;99.90
2729;DHT22;1372;47.956;7.830;2023-04-08T02:03:49;5.60;99.90
2729;DHT22;1372;47.956;7.830;2023-04-08T02:06:20;5.50;99.90
2729;DHT22;1372;47.956;7.830;2023-04-08T02:08:51;5.60;99.90
2729;DHT22;1372;47.956;7.830;2023-04-08T02:11:26;5.60;99.90
2729;DHT22;1372;47.956;7.830;2023-04-08T02:13:55;5.60;99.90
2729;DHT22;1372;47.956;7.830;2023-04-08T02:16:30;5.60;99.90
2729;DHT22;1372;47.956;7.830;2023-04-08T02:19:08;5.50;99.90
2729;DHT22;1372;47.956;7.830;2023-04-08T02:21:45;5.50;99.90
2729;DHT22;1372;47.956;7.830;2023-04-08T02:24:17;5.50;99.90
2729;DHT22;1372;47.956;7.830;2023-04-08T02:26:48;5.60;99.90
2729;DHT22;1372;47.956;7.830;2023-04-08T02:29:18;5.60;99.90
2729;DHT22;1372;47.956;7.830;2023-04-08T02:31:49;5.60;99.90
2729;DHT22;1372;47.956;7.830;2023-04-08T02:34:19;5.60;99.90
2729;DHT22;1372;47.956;7.830;2023-04-08T02:36:49;5.70;99.90
2729;DHT22;1372;47.956;7.830;2023-04-08T02:39:18;5.70;99.90
2729;DHT22;1372;47.956;7.830;2023-04-08T02:41:49;5.70;99.90
2729;DHT22;1372;47.956;7.830;2023-04-08T02:44:18;5.70;99.90
2729;DHT22;1372;47.956;7.830;2023-04-08T02:46:47;5.70;99.90
2729;DHT22;1372;47.956;7.830;2023-04-08T02:49:16;5.80;99.90
2729;DHT22;1372;47.956;7.830;2023-04-08T02:51:47;5.80;99.90
2729;DHT22;1372;47.956;7.830;2023-04-08T02:54:16;5.90;99.90
2729;DHT22;1372;47.956;7.830;2023-04-08T02:56:45;6.00;99.90
2729;DHT22;1372;47.956;7.830;2023-04-08T02:59:15;5.90;99.90
2729;DHT22;1372;47.956;7.830;2023-04-08T03:01:44;5.90;99.90
2729;DHT22;1372;47.956;7.830;2023-04-08T03:04:13;6.00;99.90
2729;DHT22;1372;47.956;7.830;2023-04-08T03:06:42;5.90;99.90
2729;DHT22;1372;47.956;7.830;2023-04-08T03:09:11;6.00;99.90
2729;DHT22;1372;47.956;7.830;2023-04-08T03:11:40;6.00;99.90
2729;DHT22;1372;47.956;7.830;2023-04-08T03:14:08;6.10;99.90
2729;DHT22;1372;47.956;7.830;2023-04-08T03:16:38;6.10;99.90
2729;DHT22;1372;47.956;7.830;2023-04-08T03:19:07;6.10;99.90
2729;DHT22;1372;47.956;7.830;2023-04-08T03:21:36;6.10;99.90
2729;DHT22;1372;47.956;7.830;2023-04-08T03:24:05;6.20;99.90
2729;DHT22;1372;47.956;7.830;2023-04-08T03:26:34;6.20;99.90
2729;DHT22;1372;47.956;7.830;2023-04-08T03:29:03;6.20;99.90
2729;DHT22;1372;47.956;7.830;2023-04-08T03:31:33;6.20;99.90
2729;DHT22;1372;47.956;7.830;2023-04-08T03:34:03;6.20;99.90
2729;DHT22;1372;47.956;7.830;2023-04-08T03:36:32;6.20;99.90
2729;DHT22;1372;47.956;7.830;2023-04-08T03:39:01;6.20;99.90
2729;DHT22;1372;47.956;7.830;2023-04-08T03:41:30;6.10;99.90
2729;DHT22;1372;47.956;7.830;2023-04-08T03:43:58;6.10;99.90
2729;DHT22;1372;47.956;7.830;2023-04-08T03:46:27;6.20;99.90
2729;DHT22;1372;47.956;7.830;2023-04-08T03:48:56;6.20;99.90
2729;DHT22;1372;47.956;7.830;2023-04-08T03:51:29;6.20;99.90
2729;DHT22;1372;47.956;7.830;2023-04-08T03:53:58;6.20;99.90
2729;DHT22;1372;47.956;7.830;2023-04-08T03:56:26;6.20;99.90
2729;DHT22;1372;47.956;7.830;2023-04-08T03:58:55;6.20;99.90
2729;DHT22;1372;47.956;7.830;2023-04-08T04:01:24;6.20;99.90
2729;DHT22;1372;47.956;7.830;2023-04-08T04:03:53;6.20;99.90
2729;DHT22;1372;47.956;7.830;2023-04-08T04:06:22;6.20;99.90
2729;DHT22;1372;47.956;7.830;2023-04-08T04:08:53;6.20;99.90
2729;DHT22;1372;47.956;7.830;2023-04-08T04:11:22;6.20;99.90
2729;DHT22;1372;47.956;7.830;2023-04-08T04:13:52;6.20;99.90
2729;DHT22;1372;47.956;7.830;2023-04-08T04:16:21;6.20;99.90
2729;DHT22;1372;47.956;7.830;2023-04-08T04:18:52;6.20;99.90
2729;DHT22;1372;47.956;7.830;2023-04-08T04:21:21;6.10;99.90
2729;DHT22;1372;47.956;7.830;2023-04-08T04:23:50;6.10;99.90
2729;DHT22;1372;47.956;7.830;2023-04-08T04:26:20;6.10;99.90
2729;DHT22;1372;47.956;7.830;2023-04-08T04:28:49;6.20;99.90
2729;DHT22;1372;47.956;7.830;2023-04-08T04:31:20;6.20;99.90
2729;DHT22;1372;47.956;7.830;2023-04-08T04:33:49;6.30;99.90
2729;DHT22;1372;47.956;7.830;2023-04-08T04:36:18;6.30;99.90
2729;DHT22;1372;47.956;7.830;2023-04-08T04:38:50;6.40;99.90
2729;DHT22;1372;47.956;7.830;2023-04-08T04:41:21;6.40;99.90
2729;DHT22;1372;47.956;7.830;2023-04-08T04:43:50;6.30;99.90
2729;DHT22;1372;47.956;7.830;2023-04-08T04:46:19;6.20;99.90
2729;DHT22;1372;47.956;7.830;2023-04-08T04:48:48;6.20;99.90
2729;DHT22;1372;47.956;7.830;2023-04-08T04:51:17;6.20;99.90
2729;DHT22;1372;47.956;7.830;2023-04-08T04:53:46;6.10;99.90
2729;DHT22;1372;47.956;7.830;2023-04-08T04:56:16;6.10;99.90
2729;DHT22;1372;47.956;7.830;2023-04-08T04:58:46;6.20;99.90
2729;DHT22;1372;47.956;7.830;2023-04-08T05:01:15;6.20;99.90
2729;DHT22;1372;47.956;7.830;2023-04-08T05:03:44;6.20;99.90
2729;DHT22;1372;47.956;7.830;2023-04-08T05:06:15;6.20;99.90
2729;DHT22;1372;47.956;7.830;2023-04-08T05:08:44;6.20;99.90
2729;DHT22;1372;47.956;7.830;2023-04-08T05:11:13;6.20;99.90
2729;DHT22;1372;47.956;7.830;2023-04-08T05:13:46;6.10;99.90
2729;DHT22;1372;47.956;7.830;2023-04-08T05:16:19;6.20;99.90
2729;DHT22;1372;47.956;7.830;2023-04-08T05:18:48;6.20;99.90
2729;DHT22;1372;47.956;7.830;2023-04-08T05:21:21;6.20;99.90
2729;DHT22;1372;47.956;7.830;2023-04-08T05:23:51;6.30;99.90
2729;DHT22;1372;47.956;7.830;2023-04-08T05:26:23;6.40;99.90
2729;DHT22;1372;47.956;7.830;2023-04-08T05:28:53;6.40;99.90
2729;DHT22;1372;47.956;7.830;2023-04-08T05:31:23;6.40;99.90
2729;DHT22;1372;47.956;7.830;2023-04-08T05:33:51;6.50;99.90
2729;DHT22;1372;47.956;7.830;2023-04-08T05:36:20;6.60;99.90
2729;DHT22;1372;47.956;7.830;2023-04-08T05:38:49;6.60;99.90
2729;DHT22;1372;47.956;7.830;2023-04-08T05:41:18;6.60;99.90
2729;DHT22;1372;47.956;7.830;2023-04-08T05:43:48;6.60;99.90
2729;DHT22;1372;47.956;7.830;2023-04-08T05:46:18;6.60;99.90
2729;DHT22;1372;47.956;7.830;2023-04-08T05:48:47;6.70;99.90
2729;DHT22;1372;47.956;7.830;2023-04-08T05:51:16;6.80;99.90
2729;DHT22;1372;47.956;7.830;2023-04-08T05:58:50;6.90;99.90
2729;DHT22;1372;47.956;7.830;2023-04-08T06:10:11;7.00;99.90
2729;DHT22;1372;47.956;7.830;2023-04-08T06:12:40;7.10;99.90
2729;DHT22;1372;47.956;7.830;2023-04-08T06:15:17;7.10;99.90
2729;DHT22;1372;47.956;7.830;2023-04-08T06:17:46;7.20;99.90
2729;DHT22;1372;47.956;7.830;2023-04-08T06:20:15;7.20;99.90
2729;DHT22;1372;47.956;7.830;2023-04-08T06:22:44;7.30;99.90
2729;DHT22;1372;47.956;7.830;2023-04-08T06:25:14;7.30;99.90
2729;DHT22;1372;47.956;7.830;2023-04-08T06:27:44;7.30;99.90
2729;DHT22;1372;47.956;7.830;2023-04-08T06:30:14;7.30;99.90
2729;DHT22;1372;47.956;7.830;2023-04-08T06:32:43;7.30;99.90
2729;DHT22;1372;47.956;7.830;2023-04-08T06:35:13;7.30;99.90
2729;DHT22;1372;47.956;7.830;2023-04-08T06:37:43;7.40;99.90
2729;DHT22;1372;47.956;7.830;2023-04-08T06:40:15;7.40;99.90
2729;DHT22;1372;47.956;7.830;2023-04-08T06:42:44;7.40;99.90
2729;DHT22;1372;47.956;7.830;2023-04-08T06:45:13;7.50;99.90
2729;DHT22;1372;47.956;7.830;2023-04-08T06:47:42;7.70;99.90
2729;DHT22;1372;47.956;7.830;2023-04-08T06:50:11;7.80;99.90
2729;DHT22;1372;47.956;7.830;2023-04-08T06:52:40;7.80;99.90
2729;DHT22;1372;47.956;7.830;2023-04-08T06:55:09;7.80;99.90
2729;DHT22;1372;47.956;7.830;2023-04-08T06:57:40;7.90;99.90
2729;DHT22;1372;47.956;7.830;2023-04-08T07:00:09;7.90;99.90
2729;DHT22;1372;47.956;7.830;2023-04-08T07:02:41;7.90;99.90
2729;DHT22;1372;47.956;7.830;2023-04-08T07:05:10;8.00;99.90
2729;DHT22;1372;47.956;7.830;2023-04-08T07:07:40;8.00;99.90
2729;DHT22;1372;47.956;7.830;2023-04-08T07:10:09;8.00;99.90
2729;DHT22;1372;47.956;7.830;2023-04-08T07:12:40;8.00;99.90
2729;DHT22;1372;47.956;7.830;2023-04-08T07:15:09;8.00;99.90
2729;DHT22;1372;47.956;7.830;2023-04-08T07:17:41;8.00;99.90
2729;DHT22;1372;47.956;7.830;2023-04-08T07:20:11;8.00;99.90
2729;DHT22;1372;47.956;7.830;2023-04-08T07:22:41;8.10;99.90
2729;DHT22;1372;47.956;7.830;2023-04-08T07:25:10;8.00;99.90
2729;DHT22;1372;47.956;7.830;2023-04-08T07:27:40;8.10;99.90
2729;DHT22;1372;47.956;7.830;2023-04-08T07:30:10;8.00;99.90
2729;DHT22;1372;47.956;7.830;2023-04-08T07:32:39;8.10;99.90
2729;DHT22;1372;47.956;7.830;2023-04-08T07:35:08;8.20;99.90
2729;DHT22;1372;47.956;7.830;2023-04-08T07:37:37;8.30;99.90
2729;DHT22;1372;47.956;7.830;2023-04-08T07:40:07;8.40;99.90
2729;DHT22;1372;47.956;7.830;2023-04-08T07:42:37;8.40;99.90
2729;DHT22;1372;47.956;7.830;2023-04-08T07:45:09;8.40;99.90
2729;DHT22;1372;47.956;7.830;2023-04-08T07:47:38;8.30;99.90
2729;DHT22;1372;47.956;7.830;2023-04-08T07:50:08;8.40;99.90
2729;DHT22;1372;47.956;7.830;2023-04-08T07:52:38;8.50;99.90
2729;DHT22;1372;47.956;7.830;2023-04-08T07:55:08;8.70;99.90
2729;DHT22;1372;47.956;7.830;2023-04-08T07:57:37;8.90;99.90
2729;DHT22;1372;47.956;7.830;2023-04-08T08:00:09;8.80;99.90
2729;DHT22;1372;47.956;7.830;2023-04-08T08:02:38;8.80;99.90
2729;DHT22;1372;47.956;7.830;2023-04-08T08:05:08;8.90;99.90
2729;DHT22;1372;47.956;7.830;2023-04-08T08:07:37;9.00;99.90
2729;DHT22;1372;47.956;7.830;2023-04-08T08:10:07;9.10;99.90
2729;DHT22;1372;47.956;7.830;2023-04-08T08:12:39;9.20;99.90
2729;DHT22;1372;47.956;7.830;2023-04-08T08:15:12;9.30;99.90
2729;DHT22;1372;47.956;7.830;2023-04-08T08:17:44;9.30;99.90
2729;DHT22;1372;47.956;7.830;2023-04-08T08:20:15;9.40;99.90
2729;DHT22;1372;47.956;7.830;2023-04-08T08:22:45;9.40;99.90
2729;DHT22;1372;47.956;7.830;2023-04-08T08:25:23;9.50;99.90
2729;DHT22;1372;47.956;7.830;2023-04-08T08:27:52;9.50;99.90
2729;DHT22;1372;47.956;7.830;2023-04-08T08:30:23;9.60;99.90
2729;DHT22;1372;47.956;7.830;2023-04-08T08:32:52;9.70;99.90
2729;DHT22;1372;47.956;7.830;2023-04-08T08:35:23;9.70;99.90
2729;DHT22;1372;47.956;7.830;2023-04-08T08:37:54;9.70;99.90
2729;DHT22;1372;47.956;7.830;2023-04-08T08:40:25;9.70;99.90
2729;DHT22;1372;47.956;7.830;2023-04-08T08:42:54;9.70;99.90
2729;DHT22;1372;47.956;7.830;2023-04-08T08:45:27;9.60;99.90
2729;DHT22;1372;47.956;7.830;2023-04-08T08:47:56;9.70;99.90
2729;DHT22;1372;47.956;7.830;2023-04-08T08:50:25;9.80;99.90
2729;DHT22;1372;47.956;7.830;2023-04-08T08:52:53;9.90;99.90
2729;DHT22;1372;47.956;7.830;2023-04-08T08:55:22;9.90;99.90
2729;DHT22;1372;47.956;7.830;2023-04-08T08:57:54;9.80;99.90
2729;DHT22;1372;47.956;7.830;2023-04-08T09:00:32;9.90;99.90
2729;DHT22;1372;47.956;7.830;2023-04-08T09:03:18;9.90;99.90
2729;DHT22;1372;47.956;7.830;2023-04-08T09:05:50;10.00;99.90
2729;DHT22;1372;47.956;7.830;2023-04-08T09:08:26;10.10;99.90
2729;DHT22;1372;47.956;7.830;2023-04-08T09:11:10;9.90;99.90
2729;DHT22;1372;47.956;7.830;2023-04-08T09:13:41;10.00;99.90
2729;DHT22;1372;47.956;7.830;2023-04-08T09:16:15;10.10;99.90
2729;DHT22;1372;47.956;7.830;2023-04-08T09:18:47;10.20;99.90
2729;DHT22;1372;47.956;7.830;2023-04-08T09:21:16;10.30;99.90
2729;DHT22;1372;47.956;7.830;2023-04-08T09:23:47;10.40;99.90
2729;DHT22;1372;47.956;7.830;2023-04-08T09:26:18;10.50;99.90
2729;DHT22;1372;47.956;7.830;2023-04-08T09:28:58;10.50;99.90
2729;DHT22;1372;47.956;7.830;2023-04-08T09:31:39;10.50;99.90
2729;DHT22;1372;47.956;7.830;2023-04-08T09:34:11;10.50;99.90
2729;DHT22;1372;47.956;7.830;2023-04-08T09:36:41;10.60;99.90
2729;DHT22;1372;47.956;7.830;2023-04-08T09:39:10;10.50;99.90
2729;DHT22;1372;47.956;7.830;2023-04-08T09:41:40;10.60;99.90
2729;DHT22;1372;47.956;7.830;2023-04-08T09:44:10;10.50;99.90
2729;DHT22;1372;47.956;7.830;2023-04-08T09:46:50;10.60;99.90
2729;DHT22;1372;47.956;7.830;2023-04-08T09:49:25;10.50;99.90
2729;DHT22;1372;47.956;7.830;2023-04-08T09:52:03;10.50;99.90
2729;DHT22;1372;47.956;7.830;2023-04-08T09:54:41;10.50;99.90
2729;DHT22;1372;47.956;7.830;2023-04-08T09:57:16;10.50;99.90
2729;DHT22;1372;47.956;7.830;2023-04-08T09:59:59;10.50;99.90
2729;DHT22;1372;47.956;7.830;2023-04-08T10:02:42;10.50;99.90
2729;DHT22;1372;47.956;7.830;2023-04-08T10:05:18;10.50;99.90
2729;DHT22;1372;47.956;7.830;2023-04-08T10:07:48;10.60;99.90
2729;DHT22;1372;47.956;7.830;2023-04-08T10:10:18;10.60;99.90
2729;DHT22;1372;47.956;7.830;2023-04-08T10:12:47;10.70;99.90
2729;DHT22;1372;47.956;7.830;2023-04-08T10:15:26;10.70;99.90
2729;DHT22;1372;47.956;7.830;2023-04-08T10:18:31;10.70;99.90
2729;DHT22;1372;47.956;7.830;2023-04-08T10:21:04;10.80;99.90
2729;DHT22;1372;47.956;7.830;2023-04-08T10:24:00;10.80;99.90
2729;DHT22;1372;47.956;7.830;2023-04-08T10:26:38;10.80;99.90
2729;DHT22;1372;47.956;7.830;2023-04-08T10:29:32;10.80;99.90
2729;DHT22;1372;47.956;7.830;2023-04-08T10:32:02;10.80;99.90
2729;DHT22;1372;47.956;7.830;2023-04-08T10:34:32;10.80;99.90
2729;DHT22;1372;47.956;7.830;2023-04-08T10:37:01;10.90;99.90
2729;DHT22;1372;47.956;7.830;2023-04-08T10:39:30;10.90;99.90
2729;DHT22;1372;47.956;7.830;2023-04-08T10:42:00;11.00;99.90
2729;DHT22;1372;47.956;7.830;2023-04-08T10:44:30;11.00;99.90
2729;DHT22;1372;47.956;7.830;2023-04-08T10:46:59;11.00;99.90
2729;DHT22;1372;47.956;7.830;2023-04-08T10:49:34;11.00;99.90
2729;DHT22;1372;47.956;7.830;2023-04-08T10:52:06;11.10;99.90
2729;DHT22;1372;47.956;7.830;2023-04-08T10:54:36;11.20;99.90
2729;DHT22;1372;47.956;7.830;2023-04-08T10:57:07;11.10;99.90
2729;DHT22;1372;47.956;7.830;2023-04-08T10:59:36;11.20;99.90
2729;DHT22;1372;47.956;7.830;2023-04-08T11:02:12;11.20;99.90
2729;DHT22;1372;47.956;7.830;2023-04-08T11:04:44;11.10;99.90
2729;DHT22;1372;47.956;7.830;2023-04-08T11:07:15;11.10;99.90
2729;DHT22;1372;47.956;7.830;2023-04-08T11:09:44;11.10;99.90
2729;DHT22;1372;47.956;7.830;2023-04-08T11:12:15;11.10;99.90
2729;DHT22;1372;47.956;7.830;2023-04-08T11:14:47;11.10;99.90
2729;DHT22;1372;47.956;7.830;2023-04-08T11:17:18;11.20;99.90
2729;DHT22;1372;47.956;7.830;2023-04-08T11:19:49;11.30;99.90
2729;DHT22;1372;47.956;7.830;2023-04-08T11:22:18;11.20;99.90
2729;DHT22;1372;47.956;7.830;2023-04-08T11:24:48;11.20;99.90
2729;DHT22;1372;47.956;7.830;2023-04-08T11:27:18;11.00;99.90
2729;DHT22;1372;47.956;7.830;2023-04-08T11:29:48;11.10;99.90
2729;DHT22;1372;47.956;7.830;2023-04-08T11:32:17;11.20;99.90
2729;DHT22;1372;47.956;7.830;2023-04-08T11:34:48;11.40;99.90
2729;DHT22;1372;47.956;7.830;2023-04-08T11:37:17;11.40;99.90
2729;DHT22;1372;47.956;7.830;2023-04-08T11:39:46;11.40;99.90
2729;DHT22;1372;47.956;7.830;2023-04-08T11:42:27;11.50;99.90
2729;DHT22;1372;47.956;7.830;2023-04-08T11:44:56;11.70;99.90
2729;DHT22;1372;47.956;7.830;2023-04-08T11:47:30;11.80;99.90
2729;DHT22;1372;47.956;7.830;2023-04-08T11:50:04;12.00;99.90
2729;DHT22;1372;47.956;7.830;2023-04-08T11:52:41;12.20;99.90
2729;DHT22;1372;47.956;7.830;2023-04-08T11:55:22;12.50;99.90
2729;DHT22;1372;47.956;7.830;2023-04-08T11:57:52;12.70;99.90
2729;DHT22;1372;47.956;7.830;2023-04-08T12:00:24;12.70;99.90
2729;DHT22;1372;47.956;7.830;2023-04-08T12:02:56;12.70;99.90
2729;DHT22;1372;47.956;7.830;2023-04-08T12:05:26;12.60;99.90
2729;DHT22;1372;47.956;7.830;2023-04-08T12:07:55;12.70;99.90
2729;DHT22;1372;47.956;7.830;2023-04-08T12:10:24;12.70;99.90
2729;DHT22;1372;47.956;7.830;2023-04-08T12:12:53;12.50;99.90
2729;DHT22;1372;47.956;7.830;2023-04-08T12:15:25;12.30;99.90
2729;DHT22;1372;47.956;7.830;2023-04-08T12:17:53;12.20;99.90
2729;DHT22;1372;47.956;7.830;2023-04-08T12:20:22;12.20;99.90
2729;DHT22;1372;47.956;7.830;2023-04-08T12:22:53;12.10;99.90
2729;DHT22;1372;47.956;7.830;2023-04-08T12:25:22;12.00;99.90
2729;DHT22;1372;47.956;7.830;2023-04-08T12:27:51;12.00;99.90
2729;DHT22;1372;47.956;7.830;2023-04-08T12:30:20;11.90;99.90
2729;DHT22;1372;47.956;7.830;2023-04-08T12:32:49;11.90;99.90
2729;DHT22;1372;47.956;7.830;2023-04-08T12:35:19;12.00;99.90
2729;DHT22;1372;47.956;7.830;2023-04-08T12:37:48;11.90;99.90
2729;DHT22;1372;47.956;7.830;2023-04-08T12:40:19;12.00;99.90
2729;DHT22;1372;47.956;7.830;2023-04-08T12:42:48;11.90;99.90
2729;DHT22;1372;47.956;7.830;2023-04-08T12:45:17;11.90;99.90
2729;DHT22;1372;47.956;7.830;2023-04-08T12:47:46;12.00;99.90
2729;DHT22;1372;47.956;7.830;2023-04-08T12:50:15;12.00;99.90
2729;DHT22;1372;47.956;7.830;2023-04-08T12:52:44;11.90;99.90
2729;DHT22;1372;47.956;7.830;2023-04-08T12:55:13;11.90;99.90
2729;DHT22;1372;47.956;7.830;2023-04-08T12:57:44;11.90;99.90
2729;DHT22;1372;47.956;7.830;2023-04-08T13:00:14;12.00;99.90
2729;DHT22;1372;47.956;7.830;2023-04-08T13:02:43;11.90;99.90
2729;DHT22;1372;47.956;7.830;2023-04-08T13:05:11;12.00;99.90
2729;DHT22;1372;47.956;7.830;2023-04-08T13:07:40;12.10;99.90
2729;DHT22;1372;47.956;7.830;2023-04-08T13:10:09;12.20;99.90
2729;DHT22;1372;47.956;7.830;2023-04-08T13:12:38;12.20;99.90
2729;DHT22;1372;47.956;7.830;2023-04-08T13:15:11;12.50;99.90
2729;DHT22;1372;47.956;7.830;2023-04-08T13:17:40;12.70;99.90
2729;DHT22;1372;47.956;7.830;2023-04-08T13:20:12;12.60;99.90
2729;DHT22;1372;47.956;7.830;2023-04-08T13:22:41;12.60;99.90
2729;DHT22;1372;47.956;7.830;2023-04-08T13:25:10;12.70;99.90
2729;DHT22;1372;47.956;7.830;2023-04-08T13:27:41;12.60;99.90
2729;DHT22;1372;47.956;7.830;2023-04-08T13:30:13;12.60;99.90
2729;DHT22;1372;47.956;7.830;2023-04-08T13:32:42;12.60;99.90
2729;DHT22;1372;47.956;7.830;2023-04-08T13:35:11;12.60;99.90
2729;DHT22;1372;47.956;7.830;2023-04-08T13:37:40;12.50;99.90
2729;DHT22;1372;47.956;7.830;2023-04-08T13:40:11;12.50;99.90
2729;DHT22;1372;47.956;7.830;2023-04-08T13:42:39;12.40;99.90
2729;DHT22;1372;47.956;7.830;2023-04-08T13:45:09;12.30;99.90
2729;DHT22;1372;47.956;7.830;2023-04-08T13:47:40;12.40;99.90
2729;DHT22;1372;47.956;7.830;2023-04-08T13:50:09;12.40;99.90
2729;DHT22;1372;47.956;7.830;2023-04-08T13:52:38;12.30;99.90
2729;DHT22;1372;47.956;7.830;2023-04-08T13:55:07;12.30;99.90
2729;DHT22;1372;47.956;7.830;2023-04-08T13:57:37;12.20;99.90
2729;DHT22;1372;47.956;7.830;2023-04-08T14:00:07;12.20;99.90
2729;DHT22;1372;47.956;7.830;2023-04-08T14:02:37;12.40;99.90
2729;DHT22;1372;47.956;7.830;2023-04-08T14:05:08;12.40;99.90
2729;DHT22;1372;47.956;7.830;2023-04-08T14:07:37;12.40;99.90
2729;DHT22;1372;47.956;7.830;2023-04-08T14:10:07;12.30;99.90
2729;DHT22;1372;47.956;7.830;2023-04-08T14:12:37;12.40;99.90
2729;DHT22;1372;47.956;7.830;2023-04-08T14:15:07;12.30;99.90
2729;DHT22;1372;47.956;7.830;2023-04-08T14:17:36;12.30;99.90
2729;DHT22;1372;47.956;7.830;2023-04-08T14:20:08;12.30;99.90
2729;DHT22;1372;47.956;7.830;2023-04-08T14:22:37;12.20;99.90
2729;DHT22;1372;47.956;7.830;2023-04-08T14:25:07;12.20;99.90
2729;DHT22;1372;47.956;7.830;2023-04-08T14:27:37;12.20;99.90
2729;DHT22;1372;47.956;7.830;2023-04-08T14:30:17;12.10;99.90
2729;DHT22;1372;47.956;7.830;2023-04-08T14:32:46;12.10;99.90
2729;DHT22;1372;47.956;7.830;2023-04-08T14:35:17;12.10;99.90
2729;DHT22;1372;47.956;7.830;2023-04-08T14:37:48;12.10;99.90
2729;DHT22;1372;47.956;7.830;2023-04-08T14:40:16;12.10;99.90
2729;DHT22;1372;47.956;7.830;2023-04-08T14:42:45;12.00;99.90
2729;DHT22;1372;47.956;7.830;2023-04-08T14:45:16;12.00;99.90
2729;DHT22;1372;47.956;7.830;2023-04-08T14:47:45;12.00;99.90
2729;DHT22;1372;47.956;7.830;2023-04-08T14:50:14;11.90;99.90
2729;DHT22;1372;47.956;7.830;2023-04-08T14:52:54;11.80;99.90
2729;DHT22;1372;47.956;7.830;2023-04-08T14:55:23;11.80;99.90
2729;DHT22;1372;47.956;7.830;2023-04-08T14:57:52;11.80;99.90
2729;DHT22;1372;47.956;7.830;2023-04-08T15:00:21;11.80;99.90
2729;DHT22;1372;47.956;7.830;2023-04-08T15:02:50;11.70;99.90
2729;DHT22;1372;47.956;7.830;2023-04-08T15:05:20;11.80;99.90
2729;DHT22;1372;47.956;7.830;2023-04-08T15:07:49;11.70;99.90
2729;DHT22;1372;47.956;7.830;2023-04-08T15:10:19;11.70;99.90
2729;DHT22;1372;47.956;7.830;2023-04-08T15:12:48;11.70;99.90
2729;DHT22;1372;47.956;7.830;2023-04-08T15:15:16;11.70;99.90
2729;DHT22;1372;47.956;7.830;2023-04-08T15:17:46;11.70;99.90
2729;DHT22;1372;47.956;7.830;2023-04-08T15:20:17;11.70;99.90
2729;DHT22;1372;47.956;7.830;2023-04-08T15:22:48;11.70;99.90
2729;DHT22;1372;47.956;7.830;2023-04-08T15:25:17;11.70;99.90
2729;DHT22;1372;47.956;7.830;2023-04-08T15:27:46;11.70;99.90
2729;DHT22;1372;47.956;7.830;2023-04-08T15:30:16;11.70;99.90
2729;DHT22;1372;47.956;7.830;2023-04-08T15:32:50;11.70;99.90
2729;DHT22;1372;47.956;7.830;2023-04-08T15:35:20;11.70;99.90
2729;DHT22;1372;47.956;7.830;2023-04-08T15:37:50;11.70;99.90
2729;DHT22;1372;47.956;7.830;2023-04-08T15:40:21;11.70;99.90
2729;DHT22;1372;47.956;7.830;2023-04-08T15:42:52;11.70;99.90
2729;DHT22;1372;47.956;7.830;2023-04-08T15:45:21;11.70;99.90
2729;DHT22;1372;47.956;7.830;2023-04-08T15:47:50;11.70;99.90
2729;DHT22;1372;47.956;7.830;2023-04-08T15:50:22;11.80;99.90
2729;DHT22;1372;47.956;7.830;2023-04-08T15:52:53;11.80;99.90
2729;DHT22;1372;47.956;7.830;2023-04-08T15:55:24;11.80;99.90
2729;DHT22;1372;47.956;7.830;2023-04-08T15:57:53;11.80;99.90
2729;DHT22;1372;47.956;7.830;2023-04-08T16:00:23;11.80;99.90
2729;DHT22;1372;47.956;7.830;2023-04-08T16:02:52;11.80;99.90
2729;DHT22;1372;47.956;7.830;2023-04-08T16:05:22;11.80;99.90
2729;DHT22;1372;47.956;7.830;2023-04-08T16:07:52;11.80;99.90
2729;DHT22;1372;47.956;7.830;2023-04-08T16:10:21;11.80;99.90
2729;DHT22;1372;47.956;7.830;2023-04-08T16:12:50;11.90;99.90
2729;DHT22;1372;47.956;7.830;2023-04-08T16:15:19;11.80;99.90
2729;DHT22;1372;47.956;7.830;2023-04-08T16:17:49;11.80;99.90
2729;DHT22;1372;47.956;7.830;2023-04-08T16:20:21;11.80;99.90
2729;DHT22;1372;47.956;7.830;2023-04-08T16:22:53;11.80;99.90
2729;DHT22;1372;47.956;7.830;2023-04-08T16:25:23;11.80;99.90
2729;DHT22;1372;47.956;7.830;2023-04-08T16:27:54;11.80;99.90
2729;DHT22;1372;47.956;7.830;2023-04-08T16:30:23;11.80;99.90
2729;DHT22;1372;47.956;7.830;2023-04-08T16:32:54;11.80;99.90
2729;DHT22;1372;47.956;7.830;2023-04-08T16:35:23;11.70;99.90
2729;DHT22;1372;47.956;7.830;2023-04-08T16:37:53;11.70;99.90
2729;DHT22;1372;47.956;7.830;2023-04-08T16:40:23;11.70;99.90
2729;DHT22;1372;47.956;7.830;2023-04-08T16:42:52;11.60;99.90
2729;DHT22;1372;47.956;7.830;2023-04-08T16:45:21;11.60;99.90